Time;durP1;ratioP1;P1;durP2;ratioP2;P2;SDS_P1;SDS_P2;PMS_P1;PMS_P2;Temp;Humidity;BMP_temperature;BMP_pressure;BME280_temperature;BME280_humidity;BME280_pressure;Samples;Min_cycle;Max_cycle;Signal;HPM_P1;HPM_P2
2023/12/24 00:01:22;;;;;;;12.30;2.17;;;9.10;99.90;;;;;;5100435;27;20796;-68
2023/12/24 00:03:48;;;;;;;12.25;3.15;;;9.20;99.90;;;;;;5103546;27;20071;-68
2023/12/24 00:06:13;;;;;;;14.73;2.30;;;9.00;99.90;;;;;;5086268;27;20119;-68
2023/12/24 00:08:39;;;;;;;14.73;3.60;;;9.10;99.90;;;;;;5102463;27;20127;-68
2023/12/24 00:11:05;;;;;;;11.55;2.63;;;9.10;99.90;;;;;;5133753;27;20219;-68
2023/12/24 00:13:31;;;;;;;14.95;2.30;;;9.00;99.90;;;;;;5101143;27;20032;-67
2023/12/24 00:15:57;;;;;;;15.82;2.97;;;9.20;99.90;;;;;;5100056;27;20040;-68
2023/12/24 00:18:23;;;;;;;17.58;2.50;;;9.10;99.90;;;;;;5099021;28;20148;-67
2023/12/24 00:20:49;;;;;;;16.30;3.03;;;9.10;99.90;;;;;;5101818;27;20942;-68
2023/12/24 00:23:14;;;;;;;13.73;2.88;;;9.10;99.90;;;;;;5101678;27;20397;-68
2023/12/24 00:25:43;;;;;;;18.77;3.35;;;9.10;99.90;;;;;;5130848;27;20050;-68
2023/12/24 00:28:08;;;;;;;13.23;2.47;;;9.10;99.90;;;;;;5103327;27;20131;-68
2023/12/24 00:30:35;;;;;;;18.58;2.92;;;9.10;99.90;;;;;;5095855;28;20166;-68
2023/12/24 00:33:01;;;;;;;13.88;2.92;;;9.20;99.90;;;;;;5100386;27;20039;-67
2023/12/24 00:35:27;;;;;;;20.02;2.95;;;9.20;99.90;;;;;;5100027;27;20136;-67
2023/12/24 00:37:56;;;;;;;12.07;3.08;;;9.20;99.90;;;;;;5100254;27;20042;-68
2023/12/24 00:40:21;;;;;;;19.30;3.15;;;9.20;99.90;;;;;;5115281;27;20051;-68
2023/12/24 00:42:47;;;;;;;14.15;2.50;;;9.20;99.90;;;;;;5102394;27;20057;-68
2023/12/24 00:45:13;;;;;;;18.90;3.17;;;9.10;99.90;;;;;;5101987;28;20047;-67
2023/12/24 00:47:39;;;;;;;15.25;2.75;;;9.20;99.90;;;;;;5096288;27;20046;-68
2023/12/24 00:50:06;;;;;;;13.88;2.55;;;9.20;99.90;;;;;;5097103;27;20174;-68
2023/12/24 00:52:32;;;;;;;10.98;2.47;;;9.20;99.90;;;;;;5095042;28;20120;-68
2023/12/24 00:54:58;;;;;;;13.05;3.28;;;9.20;99.90;;;;;;5101571;28;20054;-68
2023/12/24 00:57:24;;;;;;;8.57;2.13;;;9.20;99.90;;;;;;5098452;27;20055;-67
2023/12/24 00:59:50;;;;;;;12.48;2.60;;;9.20;99.90;;;;;;5096496;27;20039;-67
2023/12/24 01:02:15;;;;;;;13.25;2.28;;;9.20;99.90;;;;;;5101706;27;20397;-67
2023/12/24 01:04:41;;;;;;;14.57;2.50;;;9.20;99.90;;;;;;5130155;27;20398;-67
2023/12/24 01:07:07;;;;;;;11.27;2.88;;;9.20;99.90;;;;;;5098811;28;20055;-68
2023/12/24 01:09:32;;;;;;;15.82;3.28;;;9.20;99.90;;;;;;5099754;28;20549;-68
2023/12/24 01:11:58;;;;;;;17.52;3.88;;;9.20;99.90;;;;;;5099639;28;20039;-68
2023/12/24 01:14:24;;;;;;;14.30;2.58;;;9.30;99.90;;;;;;5101053;28;20047;-68
2023/12/24 01:16:49;;;;;;;12.10;2.78;;;9.20;99.90;;;;;;5097917;28;20047;-68
2023/12/24 01:19:15;;;;;;;14.48;2.75;;;9.20;99.90;;;;;;5096209;28;20640;-68
2023/12/24 01:21:40;;;;;;;12.40;2.47;;;9.20;99.90;;;;;;5098794;28;20035;-68
2023/12/24 01:24:06;;;;;;;13.27;2.78;;;9.10;99.90;;;;;;5132859;27;20046;-68
2023/12/24 01:26:34;;;;;;;11.63;3.40;;;9.20;99.90;;;;;;5100166;28;20042;-68
2023/12/24 01:29:00;;;;;;;14.40;2.95;;;9.20;99.90;;;;;;5129940;27;20054;-68
2023/12/24 01:31:27;;;;;;;14.55;2.53;;;9.40;99.90;;;;;;5101167;28;20059;-68
2023/12/24 01:33:53;;;;;;;15.27;2.35;;;9.20;99.90;;;;;;5100797;28;20040;-68
2023/12/24 01:36:19;;;;;;;11.85;2.40;;;9.20;99.90;;;;;;5100662;28;20054;-68
2023/12/24 01:38:45;;;;;;;11.52;1.73;;;9.20;99.90;;;;;;5094880;28;20039;-68
2023/12/24 01:41:12;;;;;;;12.23;2.30;;;9.20;99.90;;;;;;5097005;28;20032;-68
2023/12/24 01:43:41;;;;;;;11.77;1.98;;;9.20;99.90;;;;;;5100460;28;20111;-68
2023/12/24 01:46:18;;;;;;;11.48;1.95;;;9.20;99.90;;;;;;5096655;28;20043;-68
2023/12/24 01:48:44;;;;;;;11.68;1.40;;;9.10;99.90;;;;;;5097956;28;20108;-68
2023/12/24 01:51:10;;;;;;;9.60;1.73;;;9.10;99.90;;;;;;5100938;27;20036;-68
2023/12/24 01:53:36;;;;;;;10.73;1.95;;;9.20;99.90;;;;;;5101256;28;20534;-68
2023/12/24 01:56:04;;;;;;;9.60;1.70;;;9.10;99.90;;;;;;5134056;27;20047;-67
2023/12/24 01:58:29;;;;;;;10.35;2.50;;;9.10;99.90;;;;;;5085482;28;20038;-68
2023/12/24 02:00:56;;;;;;;10.18;1.88;;;9.20;99.90;;;;;;5133697;27;20443;-68
2023/12/24 02:03:23;;;;;;;6.15;1.45;;;9.20;99.90;;;;;;5102199;27;20397;-68
2023/12/24 02:05:50;;;;;;;10.45;1.48;;;9.20;99.90;;;;;;5102418;27;20054;-68
2023/12/24 02:08:21;;;;;;;11.40;1.75;;;9.10;99.90;;;;;;5104983;27;20043;-68
2023/12/24 02:10:50;;;;;;;7.22;1.63;;;9.20;99.90;;;;;;5100737;27;20083;-68
2023/12/24 02:13:17;;;;;;;7.30;1.17;;;9.20;99.90;;;;;;5103343;27;20579;-68
2023/12/24 02:15:50;;;;;;;6.68;1.55;;;9.10;99.90;;;;;;5105414;27;20094;-68
2023/12/24 02:18:15;;;;;;;10.30;2.13;;;9.20;99.90;;;;;;5136002;27;20076;-68
2023/12/24 02:20:41;;;;;;;6.82;1.27;;;9.20;99.90;;;;;;5141479;27;20044;-68
2023/12/24 02:23:07;;;;;;;10.57;1.80;;;9.20;99.90;;;;;;5108569;27;20101;-67
2023/12/24 02:25:32;;;;;;;6.55;1.33;;;9.20;99.90;;;;;;5104436;27;20516;-68
2023/12/24 02:28:16;;;;;;;12.55;1.95;;;9.30;99.90;;;;;;5106895;28;20044;-68
2023/12/24 02:30:50;;;;;;;12.27;2.78;;;9.30;99.90;;;;;;5107111;27;20069;-68
2023/12/24 02:33:17;;;;;;;13.32;2.15;;;9.30;99.90;;;;;;5106127;27;20040;-68
2023/12/24 02:35:45;;;;;;;10.63;3.00;;;9.30;99.90;;;;;;5110568;27;20040;-68
2023/12/24 02:38:10;;;;;;;9.00;1.98;;;9.30;99.90;;;;;;5107147;28;20562;-68
2023/12/24 02:40:36;;;;;;;14.05;2.10;;;9.40;99.90;;;;;;5107195;27;20040;-68
2023/12/24 02:43:02;;;;;;;9.25;1.83;;;9.30;99.90;;;;;;5108149;27;20027;-67
2023/12/24 02:45:27;;;;;;;7.82;1.90;;;9.30;99.90;;;;;;5135650;27;20055;-68
2023/12/24 02:47:53;;;;;;;6.78;1.40;;;9.40;99.90;;;;;;5105864;27;20069;-68
2023/12/24 02:50:19;;;;;;;6.28;1.45;;;9.30;99.90;;;;;;5106788;27;20406;-68
2023/12/24 02:52:46;;;;;;;8.25;1.23;;;9.30;99.90;;;;;;5137515;27;20134;-68
2023/12/24 02:55:11;;;;;;;6.53;1.48;;;9.30;99.90;;;;;;5091805;27;20054;-68
2023/12/24 02:57:37;;;;;;;8.85;1.17;;;9.30;99.90;;;;;;5109088;27;20384;-68
2023/12/24 03:00:08;;;;;;;6.38;1.27;;;9.30;99.90;;;;;;5108741;27;20848;-68
2023/12/24 03:02:34;;;;;;;7.70;1.73;;;9.30;99.90;;;;;;5134390;27;20040;-68
2023/12/24 03:05:00;;;;;;;6.35;1.33;;;9.30;99.90;;;;;;5102304;28;20134;-68
2023/12/24 03:07:28;;;;;;;6.35;1.38;;;9.30;99.90;;;;;;5103282;28;20078;-68
2023/12/24 03:09:54;;;;;;;8.30;1.40;;;9.30;99.90;;;;;;5135268;27;20047;-68
2023/12/24 03:12:19;;;;;;;7.30;1.40;;;9.50;99.90;;;;;;5103645;27;20035;-68
2023/12/24 03:14:45;;;;;;;7.28;1.73;;;9.30;99.90;;;;;;5105390;27;20488;-68
2023/12/24 03:17:11;;;;;;;5.25;1.63;;;9.30;99.90;;;;;;5104118;27;20123;-68
2023/12/24 03:19:36;;;;;;;6.32;1.52;;;9.30;99.90;;;;;;5101593;28;20039;-68
2023/12/24 03:22:03;;;;;;;6.45;1.30;;;9.30;99.90;;;;;;5105442;27;20055;-68
2023/12/24 03:24:28;;;;;;;6.10;1.30;;;9.20;99.90;;;;;;5105821;27;20131;-68
2023/12/24 03:26:54;;;;;;;9.45;1.77;;;9.30;99.90;;;;;;5103256;27;20440;-68
2023/12/24 03:29:21;;;;;;;5.18;1.20;;;9.30;99.90;;;;;;5135520;27;20711;-68
2023/12/24 03:31:47;;;;;;;2.35;0.90;;;9.30;99.90;;;;;;5104158;27;20085;-68
2023/12/24 03:34:14;;;;;;;5.28;1.35;;;9.30;99.90;;;;;;5102042;28;20075;-68
2023/12/24 03:36:39;;;;;;;8.40;1.60;;;9.30;99.90;;;;;;5106024;27;20476;-68
2023/12/24 03:39:05;;;;;;;4.47;1.55;;;9.30;99.90;;;;;;5107704;27;20055;-68
2023/12/24 03:41:31;;;;;;;3.88;1.08;;;9.40;99.90;;;;;;5100852;27;21074;-68
2023/12/24 03:43:57;;;;;;;7.05;1.40;;;9.30;99.90;;;;;;5101939;27;20473;-68
2023/12/24 03:46:23;;;;;;;5.35;0.90;;;9.40;99.90;;;;;;5106588;27;20100;-67
2023/12/24 03:48:49;;;;;;;6.95;1.10;;;9.40;99.90;;;;;;5101991;27;20032;-68
2023/12/24 03:51:15;;;;;;;4.03;1.50;;;9.40;99.90;;;;;;5105564;28;20174;-68
2023/12/24 03:53:41;;;;;;;5.85;1.40;;;9.40;99.90;;;;;;5105115;28;20411;-67
2023/12/24 03:56:09;;;;;;;5.30;1.33;;;9.30;99.90;;;;;;5105182;28;20051;-68
2023/12/24 03:58:35;;;;;;;4.70;1.48;;;9.40;99.90;;;;;;5102864;28;20049;-68
2023/12/24 04:01:00;;;;;;;4.63;1.10;;;9.40;99.90;;;;;;5106380;27;20114;-68
2023/12/24 04:03:26;;;;;;;4.95;1.17;;;9.40;99.90;;;;;;5103830;27;20097;-68
2023/12/24 04:05:52;;;;;;;3.67;0.80;;;9.40;99.90;;;;;;5119177;27;20043;-68
2023/12/24 04:08:17;;;;;;;2.25;0.70;;;9.40;99.90;;;;;;5104535;27;20036;-68
2023/12/24 04:10:43;;;;;;;2.10;0.68;;;9.40;99.90;;;;;;5104850;28;20563;-68
2023/12/24 04:13:09;;;;;;;1.98;0.50;;;9.40;99.90;;;;;;5102878;27;20096;-68
2023/12/24 04:15:35;;;;;;;2.45;0.70;;;9.40;99.90;;;;;;5100686;28;20048;-68
2023/12/24 04:18:01;;;;;;;2.55;0.50;;;9.80;99.90;;;;;;5102318;27;20545;-68
2023/12/24 04:20:26;;;;;;;4.07;0.75;;;9.50;99.90;;;;;;5102316;27;20046;-68
2023/12/24 04:22:52;;;;;;;7.75;0.90;;;9.40;99.90;;;;;;5101299;28;20051;-68
2023/12/24 04:25:18;;;;;;;1.48;0.50;;;9.40;99.90;;;;;;5106646;28;20040;-68
2023/12/24 04:27:43;;;;;;;4.45;0.80;;;9.40;99.90;;;;;;5104372;28;20084;-68
2023/12/24 04:30:09;;;;;;;3.38;0.50;;;9.40;99.90;;;;;;5103700;28;20067;-68
2023/12/24 04:32:35;;;;;;;4.90;0.70;;;9.40;99.90;;;;;;5135095;27;20039;-68
2023/12/24 04:35:01;;;;;;;3.15;0.63;;;9.50;99.90;;;;;;5084364;27;20066;-68
2023/12/24 04:37:26;;;;;;;5.18;0.70;;;9.40;99.90;;;;;;5101381;27;20478;-67
2023/12/24 04:39:52;;;;;;;3.80;0.60;;;9.40;99.90;;;;;;5102787;27;20054;-68
2023/12/24 04:42:18;;;;;;;3.95;1.73;;;9.50;99.90;;;;;;5099328;27;20086;-68
2023/12/24 04:44:43;;;;;;;3.13;0.73;;;9.50;99.90;;;;;;5103820;28;20039;-68
2023/12/24 04:47:09;;;;;;;4.80;0.60;;;9.50;99.90;;;;;;5104517;27;20044;-68
2023/12/24 04:49:35;;;;;;;2.47;1.45;;;9.50;99.90;;;;;;5103755;28;20130;-68
2023/12/24 04:52:00;;;;;;;1.45;0.70;;;9.50;99.90;;;;;;5102476;27;20127;-68
2023/12/24 04:54:27;;;;;;;1.80;0.88;;;9.50;99.90;;;;;;5133378;27;20071;-68
2023/12/24 04:56:52;;;;;;;3.42;0.95;;;9.50;99.90;;;;;;5101139;27;20436;-68
2023/12/24 04:59:18;;;;;;;4.38;1.02;;;9.50;99.90;;;;;;5104082;28;20126;-68
2023/12/24 05:01:44;;;;;;;3.15;1.08;;;9.60;99.90;;;;;;5132604;27;21072;-68
2023/12/24 05:04:09;;;;;;;3.40;1.02;;;9.70;99.90;;;;;;5102672;28;20040;-68
2023/12/24 05:06:35;;;;;;;4.22;1.50;;;9.60;99.90;;;;;;5102473;27;20035;-68
2023/12/24 05:09:01;;;;;;;3.30;1.17;;;9.50;99.90;;;;;;5104104;28;20037;-68
2023/12/24 05:11:26;;;;;;;2.55;1.20;;;9.60;99.90;;;;;;5103941;28;20045;-68
2023/12/24 05:13:52;;;;;;;3.08;1.30;;;9.70;99.90;;;;;;5102022;28;20031;-68
2023/12/24 05:16:17;;;;;;;2.17;1.10;;;9.60;99.90;;;;;;5102106;28;20040;-68
2023/12/24 05:18:44;;;;;;;3.83;1.38;;;9.60;99.90;;;;;;5103678;28;20062;-68
2023/12/24 05:21:09;;;;;;;4.15;1.30;;;9.60;99.90;;;;;;5103174;28;20031;-68
2023/12/24 05:23:35;;;;;;;3.22;1.40;;;9.60;99.90;;;;;;5104941;28;20063;-68
2023/12/24 05:26:01;;;;;;;3.20;1.38;;;9.70;99.90;;;;;;5106128;28;20032;-68
2023/12/24 05:28:26;;;;;;;2.35;1.25;;;9.70;99.90;;;;;;5102753;28;20039;-68
2023/12/24 05:30:52;;;;;;;2.20;1.30;;;9.70;99.90;;;;;;5105567;28;20036;-68
2023/12/24 05:33:17;;;;;;;3.90;1.48;;;9.70;99.90;;;;;;5138108;27;20066;-68
2023/12/24 05:35:43;;;;;;;5.32;1.88;;;9.70;99.90;;;;;;5107029;28;20080;-68
2023/12/24 05:38:09;;;;;;;4.60;1.48;;;9.70;99.90;;;;;;5106195;28;20040;-68
2023/12/24 05:40:34;;;;;;;4.35;1.55;;;9.70;99.90;;;;;;5106181;27;20039;-68
2023/12/24 05:43:00;;;;;;;6.50;1.83;;;9.70;99.90;;;;;;5108028;27;20051;-68
2023/12/24 05:45:26;;;;;;;5.63;2.10;;;9.70;99.90;;;;;;5109007;27;20032;-68
2023/12/24 05:47:51;;;;;;;5.18;1.85;;;9.80;99.90;;;;;;5104472;27;20486;-68
2023/12/24 05:50:17;;;;;;;4.40;1.70;;;9.80;99.90;;;;;;5106365;28;20059;-68
2023/12/24 05:52:42;;;;;;;7.22;1.83;;;9.80;99.90;;;;;;5106515;27;20054;-68
2023/12/24 05:55:09;;;;;;;4.18;2.10;;;9.80;99.90;;;;;;5108024;27;20043;-68
2023/12/24 05:57:35;;;;;;;6.05;2.50;;;9.80;99.90;;;;;;5088937;28;20036;-68
2023/12/24 06:00:03;;;;;;;5.30;2.33;;;9.90;99.90;;;;;;5140121;27;20092;-68
2023/12/24 06:02:28;;;;;;;6.90;2.58;;;9.90;99.90;;;;;;5107200;27;20047;-68
2023/12/24 06:04:54;;;;;;;8.38;3.35;;;9.80;99.90;;;;;;5108285;27;20047;-68
2023/12/24 06:07:19;;;;;;;7.88;2.53;;;9.90;99.90;;;;;;5109316;27;20042;-68
2023/12/24 06:09:45;;;;;;;9.98;2.55;;;10.00;99.90;;;;;;5108616;28;20500;-68
2023/12/24 06:12:11;;;;;;;8.68;2.72;;;9.90;99.90;;;;;;5106994;27;20084;-68
2023/12/24 06:14:36;;;;;;;6.80;2.60;;;10.00;99.90;;;;;;5105296;28;20043;-68
2023/12/24 06:17:02;;;;;;;11.73;3.17;;;9.90;99.90;;;;;;5136951;27;20047;-68
2023/12/24 06:19:28;;;;;;;14.00;3.40;;;10.00;99.90;;;;;;5105622;27;20058;-68
2023/12/24 06:21:54;;;;;;;11.32;3.05;;;10.10;99.90;;;;;;5106137;28;20035;-68
2023/12/24 06:24:24;;;;;;;9.88;3.30;;;10.10;99.90;;;;;;5136966;27;20425;-68
2023/12/24 06:26:53;;;;;;;9.30;2.92;;;10.20;99.90;;;;;;5104836;27;20051;-68
2023/12/24 06:29:19;;;;;;;14.05;4.00;;;10.10;99.90;;;;;;5105934;27;20035;-68
2023/12/24 06:31:45;;;;;;;13.32;3.60;;;10.10;99.90;;;;;;5102900;28;20047;-68
2023/12/24 06:34:11;;;;;;;13.02;4.00;;;10.10;99.90;;;;;;5105261;28;20050;-68
2023/12/24 06:36:37;;;;;;;17.45;4.40;;;10.10;99.90;;;;;;5106373;28;20401;-68
2023/12/24 06:39:03;;;;;;;13.50;4.00;;;10.10;99.90;;;;;;5106743;27;20044;-68
2023/12/24 06:41:28;;;;;;;15.95;4.40;;;10.10;99.90;;;;;;5105514;27;20043;-68
2023/12/24 06:43:54;;;;;;;17.83;4.28;;;10.20;99.90;;;;;;5109526;27;20032;-68
2023/12/24 06:46:20;;;;;;;17.63;4.47;;;10.20;99.90;;;;;;5109558;27;20057;-68
2023/12/24 06:48:46;;;;;;;20.77;4.32;;;10.10;99.90;;;;;;5137820;27;20044;-68
2023/12/24 06:51:12;;;;;;;10.40;3.70;;;10.20;99.90;;;;;;5103600;27;20094;-68
2023/12/24 06:53:37;;;;;;;22.02;5.10;;;10.30;99.90;;;;;;5107016;28;20043;-68
2023/12/24 06:56:04;;;;;;;20.10;4.90;;;10.20;99.90;;;;;;5107361;27;20447;-68
2023/12/24 06:58:29;;;;;;;17.38;4.85;;;10.30;99.90;;;;;;5103314;28;20035;-68
2023/12/24 07:00:55;;;;;;;14.43;4.57;;;10.20;99.90;;;;;;5104895;28;20525;-68
2023/12/24 07:03:21;;;;;;;15.35;4.10;;;10.30;99.90;;;;;;5089001;28;20046;-68
2023/12/24 07:05:47;;;;;;;16.05;4.43;;;10.30;99.90;;;;;;5105930;28;20043;-68
2023/12/24 07:08:12;;;;;;;17.20;4.40;;;10.30;99.90;;;;;;5101310;27;20423;-68
2023/12/24 07:10:38;;;;;;;20.17;4.57;;;10.30;99.90;;;;;;5106691;27;20043;-68
2023/12/24 07:13:04;;;;;;;12.70;4.15;;;10.30;99.90;;;;;;5101437;28;20027;-68
2023/12/24 07:15:38;;;;;;;18.48;4.30;;;10.30;99.90;;;;;;5105711;27;20131;-68
2023/12/24 07:18:03;;;;;;;14.60;3.65;;;10.40;99.90;;;;;;5105382;28;20464;-68
2023/12/24 07:20:29;;;;;;;15.38;3.92;;;10.30;99.90;;;;;;5105667;27;20047;-68
2023/12/24 07:22:55;;;;;;;15.20;4.10;;;10.50;99.90;;;;;;5103908;28;20059;-68
2023/12/24 07:25:20;;;;;;;19.25;4.35;;;10.30;99.90;;;;;;5103226;27;20077;-68
2023/12/24 07:27:46;;;;;;;18.45;4.47;;;10.40;99.90;;;;;;5107875;27;20047;-68
2023/12/24 07:30:12;;;;;;;25.23;4.70;;;10.40;99.90;;;;;;5109611;28;20109;-68
2023/12/24 07:32:45;;;;;;;19.95;4.22;;;10.40;99.90;;;;;;5104547;27;20043;-68
2023/12/24 07:35:11;;;;;;;17.52;4.82;;;10.40;99.90;;;;;;5104913;28;20043;-68
2023/12/24 07:37:38;;;;;;;16.92;3.78;;;10.40;99.90;;;;;;5106123;27;20473;-68
2023/12/24 07:40:08;;;;;;;17.88;4.28;;;10.50;99.90;;;;;;5103429;27;20044;-68
2023/12/24 07:42:37;;;;;;;14.30;3.63;;;10.40;99.90;;;;;;5102077;27;20046;-68
2023/12/24 07:45:04;;;;;;;21.67;4.60;;;10.40;99.90;;;;;;5103779;28;20478;-68
2023/12/24 07:47:31;;;;;;;15.65;3.95;;;10.50;99.90;;;;;;5103034;27;20168;-68
2023/12/24 07:49:56;;;;;;;17.45;4.30;;;10.50;99.90;;;;;;5104250;28;20497;-68
2023/12/24 07:52:22;;;;;;;21.63;4.47;;;10.50;99.90;;;;;;5135007;27;20054;-68
2023/12/24 07:54:48;;;;;;;14.35;5.00;;;10.50;99.90;;;;;;5103025;28;20039;-68
2023/12/24 07:57:14;;;;;;;17.75;4.22;;;10.50;99.90;;;;;;5086652;28;20125;-68
2023/12/24 07:59:40;;;;;;;18.23;4.40;;;10.50;99.90;;;;;;5101472;28;20115;-68
2023/12/24 08:02:06;;;;;;;18.50;4.25;;;10.50;99.90;;;;;;5102383;27;20443;-68
2023/12/24 08:04:32;;;;;;;22.98;5.20;;;10.50;99.90;;;;;;5134195;27;20122;-68
2023/12/24 08:06:58;;;;;;;18.55;5.20;;;10.50;99.90;;;;;;5105546;27;20455;-68
2023/12/24 08:09:23;;;;;;;21.70;5.40;;;10.50;99.90;;;;;;5105349;27;20067;-68
2023/12/24 08:11:49;;;;;;;25.10;5.95;;;10.60;99.90;;;;;;5106353;27;20058;-68
2023/12/24 08:14:15;;;;;;;21.42;5.35;;;10.90;99.90;;;;;;5104096;27;20455;-68
2023/12/24 08:16:40;;;;;;;20.23;5.03;;;10.60;99.90;;;;;;5134481;27;20485;-68
2023/12/24 08:19:06;;;;;;;22.35;5.35;;;10.60;99.90;;;;;;5103119;28;20385;-67
2023/12/24 08:21:31;;;;;;;19.60;5.30;;;10.60;99.90;;;;;;5102114;27;20082;-68
2023/12/24 08:23:57;;;;;;;25.55;5.72;;;10.60;99.90;;;;;;5104367;27;20066;-68
2023/12/24 08:26:23;;;;;;;25.83;5.85;;;10.60;99.90;;;;;;5103003;28;20978;-68
2023/12/24 08:28:48;;;;;;;21.73;5.15;;;10.50;99.90;;;;;;5100493;28;20036;-68
2023/12/24 08:31:14;;;;;;;21.63;4.78;;;10.60;99.90;;;;;;5105200;27;21524;-68
2023/12/24 08:33:39;;;;;;;19.83;4.45;;;10.50;99.90;;;;;;5102416;28;20044;-68
2023/12/24 08:36:06;;;;;;;20.63;5.03;;;10.60;99.90;;;;;;5104384;28;20046;-68
2023/12/24 08:38:32;;;;;;;21.13;4.63;;;10.60;99.90;;;;;;5103136;27;20450;-68
2023/12/24 08:40:58;;;;;;;29.73;5.60;;;10.60;99.90;;;;;;5101442;27;20122;-68
2023/12/24 08:43:24;;;;;;;18.73;4.15;;;10.60;99.90;;;;;;5101139;27;20118;-68
2023/12/24 08:45:50;;;;;;;20.85;4.25;;;10.60;99.90;;;;;;5102688;28;20134;-68
2023/12/24 08:48:16;;;;;;;11.70;3.75;;;10.60;99.90;;;;;;5132037;27;20088;-68
2023/12/24 08:50:41;;;;;;;20.52;4.25;;;10.60;99.90;;;;;;5087922;28;20051;-68
2023/12/24 08:53:07;;;;;;;25.00;4.57;;;10.60;99.90;;;;;;5101678;28;20466;-68
2023/12/24 08:55:32;;;;;;;23.92;5.25;;;10.60;99.90;;;;;;5102209;27;20062;-68
2023/12/24 08:57:58;;;;;;;19.10;5.57;;;10.60;99.90;;;;;;5099881;28;20058;-68
2023/12/24 09:00:24;;;;;;;22.92;4.40;;;10.60;99.90;;;;;;5115644;27;20051;-68
2023/12/24 09:02:50;;;;;;;19.70;4.00;;;10.60;99.90;;;;;;5103406;28;20028;-68
2023/12/24 09:05:19;;;;;;;18.45;3.67;;;10.70;99.90;;;;;;5136960;27;20039;-68
2023/12/24 09:07:45;;;;;;;18.75;4.00;;;10.70;99.90;;;;;;5102851;28;20089;-68
2023/12/24 09:10:10;;;;;;;14.80;3.42;;;10.70;99.90;;;;;;5091296;28;20031;-68
2023/12/24 09:12:36;;;;;;;14.35;4.00;;;11.00;99.90;;;;;;5087180;28;20925;-68
2023/12/24 09:15:02;;;;;;;19.02;4.82;;;10.80;99.90;;;;;;5105426;28;20036;-68
2023/12/24 09:17:29;;;;;;;19.20;4.15;;;10.80;99.90;;;;;;5101556;28;20126;-68
2023/12/24 09:19:54;;;;;;;15.52;3.40;;;10.70;99.90;;;;;;5101798;28;20126;-68
2023/12/24 09:22:20;;;;;;;23.13;4.82;;;10.70;99.90;;;;;;5131118;27;20043;-68
2023/12/24 09:24:46;;;;;;;23.50;3.35;;;10.70;99.90;;;;;;5100874;28;20063;-68
2023/12/24 09:27:12;;;;;;;20.30;4.32;;;10.80;99.90;;;;;;5101502;28;20451;-68
2023/12/24 09:29:38;;;;;;;21.20;4.72;;;10.80;99.90;;;;;;5102507;28;20043;-68
2023/12/24 09:32:03;;;;;;;16.63;4.07;;;10.80;99.90;;;;;;5103384;28;20130;-68
2023/12/24 09:34:29;;;;;;;17.23;4.18;;;10.70;99.90;;;;;;5105936;28;20039;-68
2023/12/24 09:36:55;;;;;;;21.20;4.82;;;10.80;99.90;;;;;;5102911;28;20507;-68
2023/12/24 09:39:21;;;;;;;22.15;4.93;;;10.80;99.90;;;;;;5131333;27;20035;-68
2023/12/24 09:41:46;;;;;;;17.45;3.40;;;10.80;99.90;;;;;;5099778;28;20036;-68
2023/12/24 09:44:12;;;;;;;22.85;4.00;;;10.80;99.90;;;;;;5103792;28;20084;-68
2023/12/24 09:46:38;;;;;;;16.95;3.20;;;10.90;99.90;;;;;;5100115;28;20032;-68
2023/12/24 09:49:03;;;;;;;13.65;3.60;;;10.80;99.90;;;;;;5102720;28;20177;-68
2023/12/24 09:51:31;;;;;;;18.27;4.80;;;10.90;99.90;;;;;;5105754;28;21139;-68
2023/12/24 09:53:58;;;;;;;21.30;4.63;;;10.90;99.90;;;;;;5125777;27;20193;-68
2023/12/24 09:56:23;;;;;;;14.73;3.25;;;11.00;99.90;;;;;;5099504;28;20202;-68
2023/12/24 09:58:49;;;;;;;19.73;4.05;;;11.00;99.90;;;;;;5096576;28;20794;-68
2023/12/24 10:01:15;;;;;;;11.88;2.97;;;11.10;99.90;;;;;;5100702;28;20039;-68
2023/12/24 10:03:41;;;;;;;16.55;3.15;;;11.10;99.90;;;;;;5131135;27;20134;-68
2023/12/24 10:06:07;;;;;;;16.17;3.63;;;11.20;99.90;;;;;;5102277;28;20047;-68
2023/12/24 10:08:34;;;;;;;17.90;2.92;;;11.10;99.90;;;;;;5103218;27;20480;-68
2023/12/24 10:11:23;;;;;;;16.17;2.75;;;11.10;99.90;;;;;;5100131;28;20078;-68
2023/12/24 10:14:00;;;;;;;12.70;2.85;;;11.10;99.90;;;;;;5101274;27;20039;-67
2023/12/24 10:16:26;;;;;;;14.15;3.83;;;11.20;99.90;;;;;;5099757;28;20048;-68
2023/12/24 10:18:55;;;;;;;13.55;3.15;;;11.20;99.90;;;;;;5105352;27;20061;-68
2023/12/24 10:21:21;;;;;;;15.85;2.42;;;11.20;99.90;;;;;;5102790;27;20040;-68
2023/12/24 10:23:46;;;;;;;10.32;3.10;;;11.20;99.90;;;;;;5107882;27;20035;-68
2023/12/24 10:26:12;;;;;;;12.43;2.35;;;11.30;99.90;;;;;;5105012;27;20054;-68
2023/12/24 10:28:51;;;;;;;18.15;2.88;;;11.40;99.90;;;;;;5106308;27;20035;-68
2023/12/24 10:31:17;;;;;;;11.30;2.63;;;11.30;99.90;;;;;;5104964;27;20054;-68
2023/12/24 10:33:43;;;;;;;14.07;1.92;;;11.30;99.90;;;;;;5106761;27;20074;-67
2023/12/24 10:36:09;;;;;;;15.38;2.55;;;11.30;99.90;;;;;;5104072;27;20138;-68
2023/12/24 10:38:36;;;;;;;9.73;2.40;;;11.30;99.90;;;;;;5106506;27;20043;-68
2023/12/24 10:41:03;;;;;;;12.23;2.38;;;11.80;99.90;;;;;;5105712;27;20059;-68
2023/12/24 10:43:29;;;;;;;12.43;2.03;;;11.40;99.90;;;;;;5108597;28;20126;-68
2023/12/24 10:45:58;;;;;;;15.48;2.47;;;11.40;99.90;;;;;;5138811;27;20131;-68
2023/12/24 10:48:23;;;;;;;14.95;2.08;;;11.40;99.90;;;;;;5105011;27;20038;-68
2023/12/24 10:50:50;;;;;;;15.30;2.50;;;11.40;99.90;;;;;;5101905;27;20036;-68
2023/12/24 10:53:16;;;;;;;16.48;2.22;;;11.40;99.90;;;;;;5100190;27;20048;-68
2023/12/24 10:55:58;;;;;;;12.52;2.40;;;11.50;99.90;;;;;;5106349;28;20035;-68
2023/12/24 10:58:40;;;;;;;13.73;2.17;;;11.50;99.90;;;;;;5101752;27;20400;-68
2023/12/24 11:01:07;;;;;;;14.45;3.00;;;11.50;99.90;;;;;;5103241;27;20031;-68
2023/12/24 11:03:43;;;;;;;12.80;2.20;;;11.50;99.90;;;;;;5107408;27;20038;-68
2023/12/24 11:06:09;;;;;;;11.13;2.65;;;11.50;99.90;;;;;;5104390;27;20485;-68
2023/12/24 11:08:35;;;;;;;14.93;2.90;;;11.80;99.90;;;;;;5099052;27;20055;-68
2023/12/24 11:11:07;;;;;;;11.88;2.30;;;11.70;99.90;;;;;;5138151;27;20079;-68
2023/12/24 11:13:32;;;;;;;14.57;3.65;;;11.60;99.90;;;;;;5103456;27;20051;-68
2023/12/24 11:16:03;;;;;;;10.27;1.83;;;11.70;99.90;;;;;;5136853;27;20491;-67
2023/12/24 11:18:44;;;;;;;9.23;1.90;;;11.70;99.90;;;;;;5107324;27;20069;-68
2023/12/24 11:21:11;;;;;;;13.23;2.42;;;11.60;99.90;;;;;;5104150;27;20111;-68
2023/12/24 11:23:38;;;;;;;14.43;2.72;;;11.60;99.90;;;;;;5105471;27;20456;-68
2023/12/24 11:26:33;;;;;;;12.52;2.75;;;11.60;99.90;;;;;;5102728;27;20079;-67
2023/12/24 11:29:00;;;;;;;16.10;2.30;;;11.60;99.90;;;;;;5107536;27;20031;-68
2023/12/24 11:31:27;;;;;;;11.57;2.38;;;11.60;99.90;;;;;;5110405;27;20129;-68
2023/12/24 11:33:57;;;;;;;13.18;1.90;;;11.60;99.90;;;;;;5107479;27;20113;-68
2023/12/24 11:36:24;;;;;;;10.00;1.85;;;11.60;99.90;;;;;;5106003;27;20051;-68
2023/12/24 11:38:57;;;;;;;14.65;1.88;;;11.70;99.90;;;;;;5106523;27;20481;-68
2023/12/24 11:41:23;;;;;;;10.93;1.95;;;11.70;99.90;;;;;;5106333;27;20071;-68
2023/12/24 11:44:01;;;;;;;10.25;1.52;;;11.70;99.90;;;;;;5107263;27;20381;-67
2023/12/24 11:46:28;;;;;;;12.57;2.47;;;11.60;99.90;;;;;;5107784;27;20039;-68
2023/12/24 11:48:55;;;;;;;13.48;2.92;;;11.70;99.90;;;;;;5105216;27;20047;-68
2023/12/24 11:51:23;;;;;;;10.50;2.33;;;11.70;99.90;;;;;;5103447;27;20044;-68
2023/12/24 11:53:49;;;;;;;15.38;2.25;;;11.70;99.90;;;;;;5104241;27;20089;-68
2023/12/24 11:56:16;;;;;;;9.50;1.92;;;11.70;99.90;;;;;;5104089;27;20043;-68
2023/12/24 11:59:04;;;;;;;15.65;3.47;;;11.70;99.90;;;;;;5102528;27;20130;-68
2023/12/24 12:01:36;;;;;;;11.60;2.67;;;11.70;99.90;;;;;;5107075;27;20031;-68
2023/12/24 12:04:03;;;;;;;11.70;2.22;;;11.70;99.90;;;;;;5136849;27;20659;-68
2023/12/24 12:06:34;;;;;;;13.73;2.13;;;11.70;99.90;;;;;;5105397;27;20035;-68
2023/12/24 12:09:05;;;;;;;12.48;1.92;;;11.90;99.90;;;;;;5101603;27;20047;-68
2023/12/24 12:11:31;;;;;;;15.30;2.97;;;11.70;99.90;;;;;;5102581;27;20043;-68
2023/12/24 12:13:59;;;;;;;8.60;2.70;;;11.70;99.90;;;;;;5136410;27;20043;-68
2023/12/24 12:16:24;;;;;;;12.13;1.90;;;11.70;99.90;;;;;;5136921;27;20059;-68
2023/12/24 12:18:50;;;;;;;12.80;3.03;;;11.70;99.90;;;;;;5086647;27;20039;-68
2023/12/24 12:21:16;;;;;;;9.38;1.75;;;11.90;99.90;;;;;;5101691;27;20032;-68
2023/12/24 12:23:42;;;;;;;12.93;2.47;;;11.70;99.90;;;;;;5105082;27;20533;-68
2023/12/24 12:26:07;;;;;;;12.38;2.70;;;11.70;99.90;;;;;;5133054;27;20047;-68
2023/12/24 12:28:36;;;;;;;11.95;2.70;;;11.70;99.90;;;;;;5106192;27;20123;-68
2023/12/24 12:31:02;;;;;;;12.30;3.22;;;11.70;99.90;;;;;;5103205;27;20130;-68
2023/12/24 12:33:28;;;;;;;10.35;3.30;;;11.70;99.90;;;;;;5103160;27;20047;-68
2023/12/24 12:35:55;;;;;;;17.48;3.08;;;11.70;99.90;;;;;;5105641;27;20043;-68
2023/12/24 12:38:22;;;;;;;13.88;2.25;;;11.70;99.90;;;;;;5104325;27;20041;-68
2023/12/24 12:40:49;;;;;;;16.83;2.63;;;11.70;99.90;;;;;;5101447;27;20382;-68
2023/12/24 12:43:20;;;;;;;13.52;3.03;;;11.70;99.90;;;;;;5132333;27;20043;-68